Tiszanana, Hungary
Current Conditions -  °F | °C
As of 2:15 AM on Saturday 25 Oct 2014 (Local Time) from LHSN Reporting Station
Overcast Overcast  
Wind Chill: 38°   Ceiling: 1000
Heat Index: 43°   Visibility: 6mi
Dew Point: 39°   Wind: 9mph
Humidity: 87%   Direction: 40°NE
Pressure: 30.21"   Gusts: NA
Location:  47.56°N, 20.52°E
Report Text: LHSN 250015Z 04004MPS 9999 BKN010 OVC013 06/04 Q1023 NOSIG RMK GRN
Loading
Personal Weather Stations






























Interactive Weather Map
Tropical Storm Tracking
New forecast layout! Learn more

10-Day Weather Forecast

Advertisements
Track Severe Weather on mobile